Alpine, TX (79832)

4:59 AM CST on February 08, 2016 (GMT -0600)
Thomas, Ave. A & N. Cockrell | | Change Station
CLOSE
Current Station
Personal Weather Station
Location: Alpine, TX
Elevation: 4485 ft
Nearby Weather Stations

Elev 4485 ft 30.36 °N, 103.66 °W | Updated 4 seconds ago

Clear
Clear
39.9 °F
Feels Like 40 °F
N
0.0
Wind Variable Wind from WNW
Gusts 0.0 mph

Today
High -- | Low -- °F
--% Chance of Precip.
Yesterday
High -- | Low -- °F
Precip. -- in
Pressure 30.43 in
Visibility 10.0 miles
Clouds Clear
Windchill 40 °F
Dew Point 20 °F
Humidity 44%
Rainfall 0.00 in
Snow Depth Not available.
7:41 AM 6:37 PM
Waning Crescent, 0% visible
METAR KE38 081035Z AUTO 01008KT 10SM CLR 05/M07 A3043 RMK AO2 T00451068
Pressure 30.43 in
Visibility 10.0 miles
Clouds Clear
Windchill 40 °F
Dew Point 20 °F
Humidity 44%
Rainfall 0.00 in
Snow Depth Not available.
7:41 AM 6:37 PM
Waning Crescent, 0% visible
METAR KE38 081035Z AUTO 01008KT 10SM CLR 05/M07 A3043 RMK AO2 T00451068

10-Day Weather Forecast

Almanac

Astronomy

Feb. 08, 2016 Rise Set
Actual Time
Civil Twilight
Nautical Twilight
Astronomical Twilight
Moon
Length of Visible Light
Length of Day
Tomorrow will be .
, % of the Moon is Illuminated

Today's Extremes

State Highs State Lows

Community

WunderPhotos

Upload Photos

1,891,420 photos uploaded!

WunderBlog® & News

Nearby

Air Quality

  Air Quality AQ Index Pollutant
Not available.

Snow Depth

Station Depth Elevation

Earthquake Activity

City Distance Mag. Time & Date
Minimum magnitude displayed is 2.5.

Coastal Water Temperatures

Place Temperature

Stations

Nearby Weather Stations

Station Location Temp. Windchill Dew Point Humidity Wind Precip. Elev Updated Type
                   

Watches & Warnings

There are currently no watches in effect.